Time,TemperatureF,DewpointF,PressureIn,WindDirection,WindDirectionDegrees,WindSpeedMPH,WindSpeedGustMPH,Humidity,HourlyPrecipIn,Conditions,Clouds,dailyrainin,SolarRadiationWatts/m^2,SoftwareType,DateUTC
2013-02-02 00:00:00,12.2,8.3,30.06,NW,319,1.0,4.0,84,0.00,,---,0.00,0.00,VWS V14.00,2013-02-02 05:00:00,
2013-02-02 00:01:00,12.2,8.3,30.06,NW,319,0.0,4.0,84,0.00,,---,0.00,0.00,VWS V14.00,2013-02-02 05:01:00,
2013-02-02 00:06:00,12.2,8.3,30.06,NW,319,0.0,4.0,84,0.00,,---,0.00,0.00,VWS V14.00,2013-02-02 05:06:00,
2013-02-02 00:11:00,12.3,8.4,30.06,NW,319,0.0,4.0,84,0.00,,---,0.00,0.00,VWS V14.00,2013-02-02 05:11:00,
2013-02-02 00:16:00,12.2,8.3,30.07,WNW,296,5.0,5.0,84,0.00,,---,0.00,0.00,VWS V14.00,2013-02-02 05:16:00,
2013-02-02 00:21:00,12.2,8.6,30.07,NW,325,2.0,5.0,85,0.00,,---,0.00,0.00,VWS V14.00,2013-02-02 05:21:00,
2013-02-02 00:26:00,11.9,8.0,30.07,NW,313,4.0,9.0,84,0.00,,---,0.00,0.00,VWS V14.00,2013-02-02 05:26:00,
2013-02-02 00:30:00,18.9,8.4,29.51,SSW,213,6.0,17.0,63,0.00,,---,0.00,0.00,VWS V14.00,2013-02-02 05:30:00,
2013-02-02 00:31:00,11.5,7.6,30.07,WNW,294,4.0,9.0,84,0.00,,---,0.00,0.00,VWS V14.00,2013-02-02 05:31:00,
2013-02-02 00:36:00,11.3,7.4,30.08,NW,314,1.0,9.0,84,0.00,,---,0.00,0.00,VWS V14.00,2013-02-02 05:36:00,
2013-02-02 00:41:00,11.2,7.3,30.08,NNW,334,2.0,9.0,84,0.00,,---,0.00,0.00,VWS V14.00,2013-02-02 05:41:00,
2013-02-02 00:46:00,10.9,7.0,30.08,NW,311,3.0,6.0,84,0.00,,---,0.00,0.00,VWS V14.00,2013-02-02 05:46:00,
2013-02-02 00:51:00,10.7,6.8,30.08,NNW,341,1.0,6.0,84,0.00,,---,0.00,0.00,VWS V14.00,2013-02-02 05:51:00,
2013-02-02 00:56:00,10.4,6.3,30.08,WNW,299,4.0,7.0,83,0.00,,---,0.00,0.00,VWS V14.00,2013-02-02 05:56:00,
2013-02-02 01:00:00,18.5,7.3,29.52,WNW,298,3.0,16.0,61,0.00,,---,0.00,0.00,VWS V14.00,2013-02-02 06:00:00,
2013-02-02 01:01:00,10.0,5.9,30.09,NW,315,1.0,7.0,83,0.00,,---,0.00,0.00,VWS V14.00,2013-02-02 06:01:00,
2013-02-02 01:06:00,9.8,5.7,30.09,NW,309,3.0,7.0,83,0.00,,---,0.00,0.00,VWS V14.00,2013-02-02 06:06:00,
2013-02-02 01:11:00,9.6,5.5,30.09,WNW,302,1.0,7.0,83,0.00,,---,0.00,0.00,VWS V14.00,2013-02-02 06:11:00,
2013-02-02 01:16:00,9.5,5.4,30.09,NW,317,1.0,3.0,83,0.00,,---,0.00,0.00,VWS V14.00,2013-02-02 06:16:00,
2013-02-02 01:21:00,9.4,5.3,30.10,WNW,294,2.0,4.0,83,0.00,,---,0.00,0.00,VWS V14.00,2013-02-02 06:21:00,
2013-02-02 01:26:00,9.2,5.1,30.10,WNW,290,2.0,5.0,83,0.00,,---,0.00,0.00,VWS V14.00,2013-02-02 06:26:00,
2013-02-02 01:30:00,18.2,7.0,29.53,WNW,298,4.0,13.0,61,0.00,,---,0.00,0.00,VWS V14.00,2013-02-02 06:30:00,
2013-02-02 01:31:00,9.2,5.1,30.10,WNW,300,0.0,5.0,83,0.00,,---,0.00,0.00,VWS V14.00,2013-02-02 06:31:00,
2013-02-02 01:36:00,9.1,5.0,30.10,NW,323,3.0,6.0,83,0.00,,---,0.00,0.00,VWS V14.00,2013-02-02 06:36:00,
2013-02-02 01:41:00,9.0,4.9,30.10,NW,316,2.0,6.0,83,0.00,,---,0.00,0.00,VWS V14.00,2013-02-02 06:41:00,
2013-02-02 01:46:00,8.9,4.8,30.11,WNW,292,1.0,3.0,83,0.00,,---,0.00,0.00,VWS V14.00,2013-02-02 06:46:00,
2013-02-02 01:51:00,8.8,4.7,30.11,WNW,293,3.0,7.0,83,0.00,,---,0.00,0.00,VWS V14.00,2013-02-02 06:51:00,
2013-02-02 01:56:00,8.7,4.6,30.11,WNW,294,1.0,7.0,83,0.00,,---,0.00,0.00,VWS V14.00,2013-02-02 06:56:00,
2013-02-02 02:00:00,18.1,7.6,29.54,South,190,4.0,13.0,63,0.00,,---,0.00,0.00,VWS V14.00,2013-02-02 07:00:00,
2013-02-02 02:01:00,8.7,4.6,30.11,WNW,290,4.0,7.0,83,0.00,,---,0.00,0.00,VWS V14.00,2013-02-02 07:01:00,
2013-02-02 02:06:00,8.6,4.5,30.12,NNW,328,2.0,7.0,83,0.00,,---,0.00,0.00,VWS V14.00,2013-02-02 07:06:00,
2013-02-02 02:11:00,8.6,4.5,30.12,NNW,329,2.0,7.0,83,0.00,,---,0.00,0.00,VWS V14.00,2013-02-02 07:11:00,
2013-02-02 02:16:00,8.5,4.4,30.12,WNW,302,3.0,4.0,83,0.00,,---,0.00,0.00,VWS V14.00,2013-02-02 07:16:00,
2013-02-02 02:21:00,8.5,4.4,30.12,WNW,288,2.0,7.0,83,0.00,,---,0.00,0.00,VWS V14.00,2013-02-02 07:21:00,
2013-02-02 02:26:00,8.4,4.3,30.12,NW,316,1.0,7.0,83,0.00,,---,0.00,0.00,VWS V14.00,2013-02-02 07:26:00,
2013-02-02 02:30:00,17.7,7.3,29.55,WSW,250,2.0,17.0,63,0.00,,---,0.00,0.00,VWS V14.00,2013-02-02 07:30:00,
2013-02-02 02:32:00,8.4,4.3,30.12,WNW,296,5.0,7.0,83,0.00,,---,0.00,0.00,VWS V14.00,2013-02-02 07:32:00,
2013-02-02 02:37:00,8.4,4.3,30.12,NW,316,1.0,7.0,83,0.00,,---,0.00,0.00,VWS V14.00,2013-02-02 07:37:00,
2013-02-02 02:41:00,8.3,4.2,30.12,West,281,2.0,7.0,83,0.00,,---,0.00,0.00,VWS V14.00,2013-02-02 07:41:00,
2013-02-02 02:47:00,8.3,4.2,30.12,NW,304,0.0,4.0,83,0.00,,---,0.00,0.00,VWS V14.00,2013-02-02 07:47:00,
2013-02-02 02:52:00,8.3,4.2,30.12,NW,311,0.0,4.0,83,0.00,,---,0.00,0.00,VWS V14.00,2013-02-02 07:52:00,
2013-02-02 02:57:00,8.3,4.2,30.12,NW,311,1.0,4.0,83,0.00,,---,0.00,0.00,VWS V14.00,2013-02-02 07:57:00,
2013-02-02 03:00:00,17.7,7.3,29.56,West,266,2.0,15.0,63,0.00,,---,0.00,0.00,VWS V14.00,2013-02-02 08:00:00,
2013-02-02 03:02:00,8.2,4.1,30.12,NW,311,0.0,5.0,83,0.00,,---,0.00,0.00,VWS V14.00,2013-02-02 08:02:00,
2013-02-02 03:07:00,8.2,4.1,30.12,NW,311,1.0,5.0,83,0.00,,---,0.00,0.00,VWS V14.00,2013-02-02 08:07:00,
2013-02-02 03:12:00,8.2,4.1,30.12,NW,311,0.0,5.0,83,0.00,,---,0.00,0.00,VWS V14.00,2013-02-02 08:12:00,
2013-02-02 03:17:00,8.2,4.1,30.12,North,5,0.0,5.0,83,0.00,,---,0.00,0.00,VWS V14.00,2013-02-02 08:17:00,
2013-02-02 03:22:00,8.2,4.1,30.12,NW,324,0.0,5.0,83,0.00,,---,0.00,0.00,VWS V14.00,2013-02-02 08:22:00,
2013-02-02 03:27:00,8.3,4.2,30.13,NW,306,0.0,5.0,83,0.00,,---,0.00,0.00,VWS V14.00,2013-02-02 08:27:00,
2013-02-02 03:30:00,17.5,7.4,29.57,WSW,248,5.0,15.0,64,0.00,,---,0.00,0.00,VWS V14.00,2013-02-02 08:30:00,
2013-02-02 03:32:00,8.2,3.8,30.12,NW,306,0.0,5.0,82,0.00,,---,0.00,0.00,VWS V14.00,2013-02-02 08:32:00,
2013-02-02 03:37:00,8.2,3.8,30.12,NW,306,0.0,5.0,82,0.00,,---,0.00,0.00,VWS V14.00,2013-02-02 08:37:00,
2013-02-02 03:42:00,8.2,3.8,30.13,NW,306,0.0,5.0,82,0.00,,---,0.00,0.00,VWS V14.00,2013-02-02 08:42:00,
2013-02-02 03:47:00,8.2,3.8,30.13,NW,306,1.0,1.0,82,0.00,,---,0.00,0.00,VWS V14.00,2013-02-02 08:47:00,
2013-02-02 03:52:00,8.2,3.8,30.13,NW,306,0.0,3.0,82,0.00,,---,0.00,0.00,VWS V14.00,2013-02-02 08:52:00,
2013-02-02 03:57:00,8.2,3.8,30.13,NW,309,2.0,3.0,82,0.00,,---,0.00,0.00,VWS V14.00,2013-02-02 08:57:00,
2013-02-02 04:00:00,17.4,7.7,29.59,West,265,4.0,9.0,65,0.00,,---,0.00,0.00,VWS V14.00,2013-02-02 09:00:00,
2013-02-02 04:02:00,8.2,3.8,30.13,NW,309,0.0,3.0,82,0.00,,---,0.00,0.00,VWS V14.00,2013-02-02 09:02:00,
2013-02-02 04:07:00,8.2,3.8,30.14,NW,309,1.0,3.0,82,0.00,,---,0.00,0.00,VWS V14.00,2013-02-02 09:07:00,
2013-02-02 04:12:00,8.1,3.8,30.14,NW,309,1.0,3.0,82,0.00,,---,0.00,0.00,VWS V14.00,2013-02-02 09:12:00,
2013-02-02 04:17:00,8.1,3.8,30.14,NW,309,0.0,0.0,82,0.00,,---,0.00,0.00,VWS V14.00,2013-02-02 09:17:00,
2013-02-02 04:22:00,8.2,3.8,30.14,NW,309,0.0,0.0,82,0.00,,---,0.00,0.00,VWS V14.00,2013-02-02 09:22:00,
2013-02-02 04:27:00,8.1,3.8,30.14,NW,309,0.0,1.0,82,0.00,,---,0.00,0.00,VWS V14.00,2013-02-02 09:27:00,
2013-02-02 04:30:00,16.4,8.3,29.61,NNE,20,1.0,10.0,70,0.00,,---,0.00,0.00,VWS V14.00,2013-02-02 09:30:00,
2013-02-02 04:32:00,8.1,3.8,30.14,NW,309,0.0,1.0,82,0.00,,---,0.00,0.00,VWS V14.00,2013-02-02 09:32:00,
2013-02-02 04:37:00,8.2,3.8,30.14,NW,309,0.0,1.0,82,0.00,,---,0.00,0.00,VWS V14.00,2013-02-02 09:37:00,
2013-02-02 04:42:00,8.2,3.8,30.14,NW,309,0.0,1.0,82,0.00,,---,0.00,0.00,VWS V14.00,2013-02-02 09:42:00,
2013-02-02 04:47:00,8.2,3.6,30.14,NW,309,0.0,0.0,81,0.00,,---,0.00,0.00,VWS V14.00,2013-02-02 09:47:00,
2013-02-02 04:52:00,8.2,3.8,30.14,NW,309,0.0,0.0,82,0.00,,---,0.00,0.00,VWS V14.00,2013-02-02 09:52:00,
2013-02-02 04:57:00,8.1,3.8,30.14,NW,309,0.0,0.0,82,0.00,,---,0.00,0.00,VWS V14.00,2013-02-02 09:57:00,
2013-02-02 05:00:00,15.5,9.6,29.63,NW,317,3.0,9.0,77,0.00,,---,0.00,7.00,VWS V14.00,2013-02-02 10:00:00,
2013-02-02 05:02:00,8.1,3.8,30.14,NW,309,0.0,0.0,82,0.00,,---,0.00,0.00,VWS V14.00,2013-02-02 10:02:00,
2013-02-02 05:07:00,8.2,3.8,30.14,NW,309,0.0,0.0,82,0.00,,---,0.00,0.00,VWS V14.00,2013-02-02 10:07:00,
2013-02-02 05:12:00,8.1,3.8,30.14,NW,309,0.0,0.0,82,0.00,,---,0.00,0.00,VWS V14.00,2013-02-02 10:12:00,
2013-02-02 05:17:00,8.1,3.8,30.14,NW,309,0.0,0.0,82,0.00,,---,0.00,0.00,VWS V14.00,2013-02-02 10:17:00,
2013-02-02 05:22:00,8.0,3.4,30.14,NW,309,0.0,0.0,81,0.00,,---,0.00,0.00,VWS V14.00,2013-02-02 10:22:00,
2013-02-02 05:27:00,8.0,3.4,30.13,NW,309,0.0,0.0,81,0.00,,---,0.00,0.00,VWS V14.00,2013-02-02 10:27:00,
2013-02-02 05:30:00,15.0,10.2,29.66,NW,314,2.0,8.0,81,0.00,,---,0.00,28.00,VWS V14.00,2013-02-02 10:30:00,
2013-02-02 05:32:00,7.8,3.2,30.14,NW,309,0.0,0.0,81,0.00,,---,0.00,0.00,VWS V14.00,2013-02-02 10:32:00,
2013-02-02 05:37:00,7.7,3.1,30.14,NW,309,0.0,0.0,81,0.00,,---,0.00,0.00,VWS V14.00,2013-02-02 10:37:00,
2013-02-02 05:42:00,7.6,3.0,30.13,NW,309,0.0,0.0,81,0.00,,---,0.00,0.00,VWS V14.00,2013-02-02 10:42:00,
2013-02-02 05:47:00,7.5,2.9,30.13,NW,309,0.0,0.0,81,0.00,,---,0.00,0.00,VWS V14.00,2013-02-02 10:47:00,
2013-02-02 05:52:00,7.2,2.6,30.13,NW,309,0.0,0.0,81,0.00,,---,0.00,0.00,VWS V14.00,2013-02-02 10:52:00,
2013-02-02 05:57:00,7.1,2.5,30.13,NW,309,0.0,0.0,81,0.00,,---,0.00,0.00,VWS V14.00,2013-02-02 10:57:00,
2013-02-02 06:00:00,14.8,10.0,29.68,WNW,297,4.0,10.0,81,0.00,,---,0.00,76.00,VWS V14.00,2013-02-02 11:00:00,
2013-02-02 06:02:00,6.9,2.6,30.13,NW,309,0.0,0.0,82,0.00,,---,0.00,0.00,VWS V14.00,2013-02-02 11:02:00,
2013-02-02 06:07:00,6.7,2.4,30.13,NW,309,0.0,0.0,82,0.00,,---,0.00,0.00,VWS V14.00,2013-02-02 11:07:00,
2013-02-02 06:12:00,6.5,2.2,30.13,NW,309,0.0,0.0,82,0.00,,---,0.00,0.00,VWS V14.00,2013-02-02 11:12:00,
2013-02-02 06:17:00,6.5,2.2,30.13,NW,309,0.0,0.0,82,0.00,,---,0.00,0.00,VWS V14.00,2013-02-02 11:17:00,
2013-02-02 06:22:00,6.3,2.0,30.13,NW,309,1.0,1.0,82,0.00,,---,0.00,0.00,VWS V14.00,2013-02-02 11:22:00,
2013-02-02 06:27:00,6.0,1.7,30.13,NW,309,0.0,1.0,82,0.00,,---,0.00,0.00,VWS V14.00,2013-02-02 11:27:00,
2013-02-02 06:30:00,15.1,10.3,29.70,NW,319,1.0,10.0,81,0.00,,---,0.00,102.00,VWS V14.00,2013-02-02 11:30:00,
2013-02-02 06:32:00,5.8,1.5,30.13,NW,309,0.0,1.0,82,0.00,,---,0.00,0.00,VWS V14.00,2013-02-02 11:32:00,
2013-02-02 06:37:00,5.6,1.3,30.13,NW,309,2.0,2.0,82,0.00,,---,0.00,0.00,VWS V14.00,2013-02-02 11:37:00,
2013-02-02 06:42:00,5.4,1.1,30.13,NW,309,0.0,2.0,82,0.00,,---,0.00,0.00,VWS V14.00,2013-02-02 11:42:00,
2013-02-02 06:47:00,5.3,1.3,30.13,NW,309,0.0,0.0,83,0.00,,---,0.00,0.00,VWS V14.00,2013-02-02 11:47:00,
2013-02-02 06:52:00,5.2,0.9,30.14,NW,309,0.0,0.0,82,0.00,,---,0.00,0.00,VWS V14.00,2013-02-02 11:52:00,
2013-02-02 06:57:00,5.1,1.1,30.14,NW,309,0.0,0.0,83,0.00,,---,0.00,0.00,VWS V14.00,2013-02-02 11:57:00,
2013-02-02 07:00:00,15.7,9.2,29.71,WNW,287,2.0,12.0,75,0.00,,---,0.00,155.00,VWS V14.00,2013-02-02 12:00:00,
2013-02-02 07:02:00,5.0,1.0,30.14,NW,309,0.0,0.0,83,0.00,,---,0.00,0.00,VWS V14.00,2013-02-02 12:02:00,
2013-02-02 07:07:00,4.9,0.9,30.14,NW,309,0.0,3.0,83,0.00,,---,0.00,0.00,VWS V14.00,2013-02-02 12:07:00,
2013-02-02 07:12:00,4.9,0.9,30.14,NE,42,1.0,4.0,83,0.00,,---,0.00,5.00,VWS V14.00,2013-02-02 12:12:00,
2013-02-02 07:17:00,5.0,1.0,30.14,NE,47,0.0,2.0,83,0.00,,---,0.00,7.00,VWS V14.00,2013-02-02 12:17:00,
2013-02-02 07:22:00,5.0,1.0,30.14,East,83,6.0,6.0,83,0.00,,---,0.00,9.00,VWS V14.00,2013-02-02 12:22:00,
2013-02-02 07:27:00,4.9,0.9,30.14,East,84,1.0,6.0,83,0.00,,---,0.00,12.00,VWS V14.00,2013-02-02 12:27:00,
2013-02-02 07:30:00,16.0,8.6,29.72,WNW,289,6.0,14.0,72,0.00,,---,0.00,165.00,VWS V14.00,2013-02-02 12:30:00,
2013-02-02 07:32:00,4.9,0.9,30.14,East,84,0.0,6.0,83,0.00,,---,0.00,14.00,VWS V14.00,2013-02-02 12:32:00,
2013-02-02 07:37:00,5.0,1.0,30.14,East,84,2.0,6.0,83,0.00,,---,0.00,18.00,VWS V14.00,2013-02-02 12:37:00,
2013-02-02 07:42:00,5.1,1.3,30.15,East,84,0.0,6.0,84,0.00,,---,0.00,63.00,VWS V14.00,2013-02-02 12:42:00,
2013-02-02 07:47:00,5.4,1.6,30.15,East,84,0.0,0.0,84,0.00,,---,0.00,44.00,VWS V14.00,2013-02-02 12:47:00,
2013-02-02 07:52:00,5.8,2.0,30.15,East,84,0.0,0.0,84,0.00,,---,0.00,63.00,VWS V14.00,2013-02-02 12:52:00,
2013-02-02 07:57:00,6.4,2.6,30.15,East,84,3.0,3.0,84,0.00,,---,0.00,60.00,VWS V14.00,2013-02-02 12:57:00,
2013-02-02 08:00:00,15.9,8.8,29.75,WNW,302,9.0,14.0,73,0.00,,---,0.00,167.00,VWS V14.00,2013-02-02 13:00:00,
2013-02-02 08:02:00,6.9,3.1,30.15,East,84,3.0,3.0,84,0.00,,---,0.00,67.00,VWS V14.00,2013-02-02 13:02:00,
2013-02-02 08:07:00,7.4,3.1,30.15,East,79,1.0,4.0,82,0.00,,---,0.00,49.00,VWS V14.00,2013-02-02 13:07:00,
2013-02-02 08:12:00,7.7,3.1,30.15,East,80,0.0,4.0,81,0.00,,---,0.00,53.00,VWS V14.00,2013-02-02 13:12:00,
2013-02-02 08:17:00,8.2,3.6,30.15,East,80,0.0,1.0,81,0.00,,---,0.00,42.00,VWS V14.00,2013-02-02 13:17:00,
2013-02-02 08:22:00,8.4,3.2,30.16,East,80,0.0,2.0,79,0.00,,---,0.00,35.00,VWS V14.00,2013-02-02 13:22:00,
2013-02-02 08:27:00,8.6,3.2,30.16,ENE,66,0.0,3.0,78,0.00,,---,0.00,47.00,VWS V14.00,2013-02-02 13:27:00,
2013-02-02 08:30:00,16.6,10.7,29.77,NW,312,3.0,10.0,77,0.00,,---,0.00,185.00,VWS V14.00,2013-02-02 13:30:00,
2013-02-02 08:32:00,8.8,3.1,30.16,North,355,2.0,3.0,77,0.00,,---,0.00,39.00,VWS V14.00,2013-02-02 13:32:00,
2013-02-02 08:38:00,9.0,3.0,30.15,North,5,0.0,4.0,76,0.00,,---,0.00,42.00,VWS V14.00,2013-02-02 13:38:00,
2013-02-02 08:43:00,9.3,3.3,30.15,East,85,5.0,6.0,76,0.00,,---,0.00,44.00,VWS V14.00,2013-02-02 13:43:00,
2013-02-02 08:48:00,9.5,3.2,30.15,ESE,109,3.0,3.0,75,0.00,,---,0.00,51.00,VWS V14.00,2013-02-02 13:48:00,
2013-02-02 08:53:00,9.8,3.2,30.15,South,191,1.0,6.0,74,0.00,,---,0.00,93.00,VWS V14.00,2013-02-02 13:53:00,
2013-02-02 08:58:00,10.0,3.1,30.15,NNE,22,0.0,6.0,73,0.00,,---,0.00,100.00,VWS V14.00,2013-02-02 13:58:00,
2013-02-02 09:00:00,16.2,10.9,29.77,WNW,293,0.0,9.0,79,0.00,,---,0.00,206.00,VWS V14.00,2013-02-02 14:00:00,
2013-02-02 09:03:00,10.5,3.6,30.15,East,92,2.0,7.0,73,0.00,,---,0.00,97.00,VWS V14.00,2013-02-02 14:03:00,
2013-02-02 09:08:00,10.7,3.5,30.15,ENE,71,1.0,7.0,72,0.00,,---,0.00,81.00,VWS V14.00,2013-02-02 14:08:00,
2013-02-02 09:13:00,11.0,3.8,30.14,SSE,167,3.0,7.0,72,0.00,,---,0.00,111.00,VWS V14.00,2013-02-02 14:13:00,
2013-02-02 09:18:00,11.2,3.3,30.14,South,184,5.0,8.0,70,0.00,,---,0.00,118.00,VWS V14.00,2013-02-02 14:18:00,
2013-02-02 09:23:00,11.6,3.7,30.14,SW,217,6.0,8.0,70,0.00,,---,0.00,144.00,VWS V14.00,2013-02-02 14:23:00,
2013-02-02 09:28:00,12.1,3.9,30.14,South,171,3.0,8.0,69,0.00,,---,0.00,171.00,VWS V14.00,2013-02-02 14:28:00,
2013-02-02 09:30:00,16.3,11.2,29.78,NW,315,0.0,8.0,80,0.00,,---,0.00,229.00,VWS V14.00,2013-02-02 14:30:00,
2013-02-02 09:33:00,12.5,4.3,30.14,WSW,252,4.0,8.0,69,0.00,,---,0.00,155.00,VWS V14.00,2013-02-02 14:33:00,
2013-02-02 09:38:00,12.8,4.2,30.14,South,184,2.0,8.0,68,0.00,,---,0.00,185.00,VWS V14.00,2013-02-02 14:38:00,
2013-02-02 09:43:00,13.3,4.4,30.14,West,263,3.0,8.0,67,0.00,,---,0.00,190.00,VWS V14.00,2013-02-02 14:43:00,
2013-02-02 09:48:00,13.6,4.4,30.14,SW,236,2.0,4.0,66,0.00,,---,0.00,204.00,VWS V14.00,2013-02-02 14:48:00,
2013-02-02 09:53:00,14.1,5.2,30.14,SSE,153,4.0,7.0,67,0.00,,---,0.00,234.00,VWS V14.00,2013-02-02 14:53:00,
2013-02-02 09:58:00,14.6,5.3,30.14,South,170,0.0,7.0,66,0.00,,---,0.00,220.00,VWS V14.00,2013-02-02 14:58:00,
2013-02-02 10:00:00,16.4,11.3,29.78,West,279,5.0,10.0,80,0.00,,---,0.00,267.00,VWS V14.00,2013-02-02 15:00:00,
2013-02-02 10:03:00,15.0,5.4,30.14,West,280,6.0,7.0,65,0.00,,---,0.00,244.00,VWS V14.00,2013-02-02 15:03:00,
2013-02-02 10:08:00,14.9,5.3,30.14,WSW,238,6.0,11.0,65,0.00,,---,0.00,239.00,VWS V14.00,2013-02-02 15:08:00,
2013-02-02 10:13:00,15.1,5.8,30.14,West,273,5.0,11.0,66,0.00,,---,0.00,232.00,VWS V14.00,2013-02-02 15:13:00,
2013-02-02 10:18:00,15.3,5.7,30.13,SW,236,3.0,5.0,65,0.00,,---,0.00,223.00,VWS V14.00,2013-02-02 15:18:00,
2013-02-02 10:23:00,15.5,5.5,30.13,South,178,4.0,6.0,64,0.00,,---,0.00,209.00,VWS V14.00,2013-02-02 15:23:00,
2013-02-02 10:28:00,15.4,5.1,30.13,SSE,163,3.0,7.0,63,0.00,,---,0.00,264.00,VWS V14.00,2013-02-02 15:28:00,
2013-02-02 10:30:00,15.9,10.3,29.79,WSW,257,2.0,8.0,78,0.00,,---,0.00,281.00,VWS V14.00,2013-02-02 15:30:00,
2013-02-02 10:33:00,15.3,5.3,30.13,SW,219,1.0,8.0,64,0.00,,---,0.00,239.00,VWS V14.00,2013-02-02 15:33:00,
2013-02-02 10:38:00,15.6,5.6,30.13,South,175,1.0,8.0,64,0.00,,---,0.00,167.00,VWS V14.00,2013-02-02 15:38:00,
2013-02-02 10:43:00,15.7,5.7,30.13,SSE,158,1.0,8.0,64,0.00,,---,0.00,225.00,VWS V14.00,2013-02-02 15:43:00,
2013-02-02 10:48:00,15.9,5.9,30.13,SSE,149,5.0,7.0,64,0.00,,---,0.00,236.00,VWS V14.00,2013-02-02 15:48:00,
2013-02-02 10:53:00,15.4,5.8,30.12,SSE,168,6.0,12.0,65,0.00,,---,0.00,267.00,VWS V14.00,2013-02-02 15:53:00,
2013-02-02 10:58:00,15.3,5.7,30.12,SW,236,6.0,12.0,65,0.00,,---,0.00,234.00,VWS V14.00,2013-02-02 15:58:00,
2013-02-02 11:00:00,16.2,10.3,29.80,NNW,328,3.0,13.0,77,0.00,,---,0.00,276.00,VWS V14.00,2013-02-02 16:00:00,
2013-02-02 11:03:00,15.1,5.8,30.12,SSE,168,8.0,12.0,66,0.00,,---,0.00,244.00,VWS V14.00,2013-02-02 16:03:00,
2013-02-02 11:08:00,15.4,6.4,30.11,South,183,5.0,12.0,67,0.00,,---,0.00,255.00,VWS V14.00,2013-02-02 16:08:00,
2013-02-02 11:13:00,15.4,6.1,30.11,South,184,5.0,12.0,66,0.00,,---,0.00,255.00,VWS V14.00,2013-02-02 16:13:00,
2013-02-02 11:18:00,15.7,6.4,30.11,South,173,3.0,7.0,66,0.00,,---,0.00,281.00,VWS V14.00,2013-02-02 16:18:00,
2013-02-02 11:23:00,15.6,6.6,30.11,SSW,211,3.0,10.0,67,0.00,,---,0.00,301.00,VWS V14.00,2013-02-02 16:23:00,
2013-02-02 11:28:00,15.9,6.9,30.10,WSW,245,2.0,11.0,67,0.00,,---,0.00,302.00,VWS V14.00,2013-02-02 16:28:00,
2013-02-02 11:30:00,16.2,10.6,29.81,West,281,6.0,13.0,78,0.00,,---,0.00,338.00,VWS V14.00,2013-02-02 16:30:00,
2013-02-02 11:33:00,16.2,7.5,30.10,West,273,8.0,11.0,68,0.00,,---,0.00,318.00,VWS V14.00,2013-02-02 16:33:00,
2013-02-02 11:38:00,16.5,7.5,30.09,South,182,2.0,11.0,67,0.00,,---,0.00,309.00,VWS V14.00,2013-02-02 16:38:00,
2013-02-02 11:43:00,16.3,6.9,30.09,South,190,11.0,12.0,66,0.00,,---,0.00,278.00,VWS V14.00,2013-02-02 16:43:00,
2013-02-02 11:48:00,16.3,7.3,30.09,SSE,167,8.0,8.0,67,0.00,,---,0.00,251.00,VWS V14.00,2013-02-02 16:48:00,
2013-02-02 11:53:00,16.1,7.1,30.09,WSW,244,2.0,10.0,67,0.00,,---,0.00,237.00,VWS V14.00,2013-02-02 16:53:00,
2013-02-02 11:58:00,16.2,7.2,30.09,SW,214,0.0,10.0,67,0.00,,---,0.00,230.00,VWS V14.00,2013-02-02 16:58:00,
2013-02-02 12:00:00,16.2,7.8,29.81,NW,305,5.0,15.0,69,0.00,,---,0.00,221.00,VWS V14.00,2013-02-02 17:00:00,
2013-02-02 12:03:00,16.3,6.9,30.08,South,190,2.0,10.0,66,0.00,,---,0.00,234.00,VWS V14.00,2013-02-02 17:03:00,
2013-02-02 12:08:00,16.4,7.4,30.08,West,279,2.0,10.0,67,0.00,,---,0.00,258.00,VWS V14.00,2013-02-02 17:08:00,
2013-02-02 12:13:00,16.6,7.6,30.08,SSE,153,0.0,10.0,67,0.00,,---,0.00,257.00,VWS V14.00,2013-02-02 17:13:00,
2013-02-02 12:18:00,16.5,7.5,30.07,South,170,7.0,11.0,67,0.00,,---,0.00,230.00,VWS V14.00,2013-02-02 17:18:00,
2013-02-02 12:23:00,16.1,7.1,30.08,West,269,2.0,17.0,67,0.00,,---,0.00,202.00,VWS V14.00,2013-02-02 17:23:00,
2013-02-02 12:28:00,16.1,7.1,30.07,South,173,0.0,17.0,67,0.00,,---,0.00,181.00,VWS V14.00,2013-02-02 17:28:00,
2013-02-02 12:30:00,15.8,6.8,29.83,NW,326,7.0,17.0,67,0.00,,---,0.00,135.00,VWS V14.00,2013-02-02 17:30:00,
2013-02-02 12:33:00,16.1,7.4,30.07,South,175,5.0,17.0,68,0.00,,---,0.00,174.00,VWS V14.00,2013-02-02 17:33:00,
2013-02-02 12:38:00,15.9,7.2,30.07,SSE,158,5.0,17.0,68,0.00,,---,0.00,165.00,VWS V14.00,2013-02-02 17:38:00,
2013-02-02 12:43:00,15.9,7.5,30.07,South,186,2.0,17.0,69,0.00,,---,0.00,174.00,VWS V14.00,2013-02-02 17:43:00,
2013-02-02 12:48:00,16.0,7.6,30.07,SSE,165,7.0,9.0,69,0.00,,---,0.00,174.00,VWS V14.00,2013-02-02 17:48:00,
2013-02-02 12:53:00,15.9,7.5,30.07,South,175,1.0,13.0,69,0.00,,---,0.00,174.00,VWS V14.00,2013-02-02 17:53:00,
2013-02-02 12:58:00,16.0,7.6,30.07,South,169,8.0,13.0,69,0.00,,---,0.00,185.00,VWS V14.00,2013-02-02 17:58:00,
2013-02-02 13:00:00,16.2,8.1,29.83,WNW,303,1.0,11.0,70,0.00,,---,0.00,74.00,VWS V14.00,2013-02-02 18:00:00,
2013-02-02 13:04:00,16.0,7.3,30.06,SSW,202,2.0,13.0,68,0.00,,---,0.00,181.00,VWS V14.00,2013-02-02 18:04:00,
2013-02-02 13:09:00,16.3,7.9,30.06,West,259,1.0,13.0,69,0.00,,---,0.00,193.00,VWS V14.00,2013-02-02 18:09:00,
2013-02-02 13:14:00,16.5,8.1,30.06,SSW,196,0.0,13.0,69,0.00,,---,0.00,185.00,VWS V14.00,2013-02-02 18:14:00,
2013-02-02 13:19:00,16.8,8.4,30.06,SW,224,2.0,6.0,69,0.00,,---,0.00,174.00,VWS V14.00,2013-02-02 18:19:00,
2013-02-02 13:24:00,17.0,8.3,30.05,SW,232,6.0,6.0,68,0.00,,---,0.00,176.00,VWS V14.00,2013-02-02 18:24:00,
2013-02-02 13:29:00,16.8,7.8,30.05,South,172,3.0,10.0,67,0.00,,---,0.00,178.00,VWS V14.00,2013-02-02 18:29:00,
2013-02-02 13:30:00,15.9,6.6,29.85,West,276,1.0,19.0,66,0.00,,---,0.00,46.00,VWS V14.00,2013-02-02 18:30:00,
2013-02-02 13:34:00,16.8,8.1,30.05,SSE,159,3.0,10.0,68,0.00,,---,0.00,172.00,VWS V14.00,2013-02-02 18:34:00,
2013-02-02 13:39:00,16.7,7.7,30.05,SW,226,2.0,10.0,67,0.00,,---,0.00,171.00,VWS V14.00,2013-02-02 18:39:00,
2013-02-02 13:44:00,16.8,8.1,30.05,SSE,148,5.0,10.0,68,0.00,,---,0.00,167.00,VWS V14.00,2013-02-02 18:44:00,
2013-02-02 13:49:00,16.7,8.0,30.05,South,173,1.0,5.0,68,0.00,,---,0.00,158.00,VWS V14.00,2013-02-02 18:49:00,
2013-02-02 13:54:00,16.8,8.1,30.05,SSE,157,1.0,5.0,68,0.00,,---,0.00,146.00,VWS V14.00,2013-02-02 18:54:00,
2013-02-02 13:59:00,16.7,8.0,30.05,SSE,163,2.0,7.0,68,0.00,,---,0.00,141.00,VWS V14.00,2013-02-02 18:59:00,
2013-02-02 14:00:00,16.0,6.0,29.86,NW,314,5.0,10.0,64,0.00,,---,0.00,39.00,VWS V14.00,2013-02-02 19:00:00,
2013-02-02 14:04:00,16.6,8.2,30.04,SSE,162,5.0,8.0,69,0.00,,---,0.00,148.00,VWS V14.00,2013-02-02 19:04:00,
2013-02-02 14:09:00,16.8,8.4,30.04,West,265,1.0,8.0,69,0.00,,---,0.00,137.00,VWS V14.00,2013-02-02 19:09:00,
2013-02-02 14:14:00,17.1,8.7,30.05,South,181,0.0,8.0,69,0.00,,---,0.00,134.00,VWS V14.00,2013-02-02 19:14:00,
2013-02-02 14:19:00,17.1,8.7,30.04,SSE,155,3.0,4.0,69,0.00,,---,0.00,134.00,VWS V14.00,2013-02-02 19:19:00,
2013-02-02 14:24:00,17.0,8.6,30.04,SE,139,5.0,9.0,69,0.00,,---,0.00,135.00,VWS V14.00,2013-02-02 19:24:00,
2013-02-02 14:29:00,16.8,8.7,30.04,South,171,3.0,10.0,70,0.00,,---,0.00,121.00,VWS V14.00,2013-02-02 19:29:00,
2013-02-02 14:30:00,15.4,5.4,29.88,WNW,291,3.0,10.0,64,0.00,,---,0.00,14.00,VWS V14.00,2013-02-02 19:30:00,
2013-02-02 14:34:00,16.7,8.3,30.05,South,178,11.0,11.0,69,0.00,,---,0.00,120.00,VWS V14.00,2013-02-02 19:34:00,
2013-02-02 14:39:00,16.6,8.2,30.04,SSW,210,4.0,11.0,69,0.00,,---,0.00,113.00,VWS V14.00,2013-02-02 19:39:00,
2013-02-02 14:44:00,16.7,8.6,30.04,South,170,2.0,11.0,70,0.00,,---,0.00,107.00,VWS V14.00,2013-02-02 19:44:00,
2013-02-02 14:49:00,16.8,8.7,30.04,South,169,2.0,3.0,70,0.00,,---,0.00,109.00,VWS V14.00,2013-02-02 19:49:00,
2013-02-02 14:54:00,17.0,9.2,30.04,South,174,0.0,6.0,71,0.00,,---,0.00,104.00,VWS V14.00,2013-02-02 19:54:00,
2013-02-02 14:59:00,17.0,8.9,30.04,SSE,165,2.0,6.0,70,0.00,,---,0.00,93.00,VWS V14.00,2013-02-02 19:59:00,
2013-02-02 15:00:00,14.9,4.9,29.89,WNW,299,3.0,9.0,64,0.00,,---,0.00,0.00,VWS V14.00,2013-02-02 20:00:00,
2013-02-02 15:04:00,16.8,8.4,30.04,South,183,1.0,8.0,69,0.00,,---,0.00,79.00,VWS V14.00,2013-02-02 20:04:00,
2013-02-02 15:09:00,16.8,8.4,30.04,South,171,4.0,8.0,69,0.00,,---,0.00,65.00,VWS V14.00,2013-02-02 20:09:00,
2013-02-02 15:14:00,16.7,8.6,30.04,South,170,4.0,8.0,70,0.00,,---,0.00,67.00,VWS V14.00,2013-02-02 20:14:00,
2013-02-02 15:19:00,16.6,8.9,30.04,SSE,153,1.0,7.0,71,0.00,,---,0.00,70.00,VWS V14.00,2013-02-02 20:19:00,
2013-02-02 15:24:00,16.7,8.9,30.03,SSE,161,1.0,7.0,71,0.00,,---,0.00,70.00,VWS V14.00,2013-02-02 20:24:00,
2013-02-02 15:29:00,16.7,9.3,30.03,SSE,161,0.0,7.0,72,0.00,,---,0.00,62.00,VWS V14.00,2013-02-02 20:29:00,
2013-02-02 15:30:00,14.8,4.8,29.91,West,279,4.0,9.0,64,0.00,,---,0.00,0.00,VWS V14.00,2013-02-02 20:30:00,
2013-02-02 15:34:00,16.8,9.4,30.03,South,173,4.0,7.0,72,0.00,,---,0.00,49.00,VWS V14.00,2013-02-02 20:34:00,
2013-02-02 15:39:00,16.7,9.3,30.03,SW,221,2.0,7.0,72,0.00,,---,0.00,40.00,VWS V14.00,2013-02-02 20:39:00,
2013-02-02 15:44:00,16.7,9.6,30.03,SSW,206,1.0,7.0,73,0.00,,---,0.00,35.00,VWS V14.00,2013-02-02 20:44:00,
2013-02-02 15:49:00,16.7,9.9,30.03,South,182,1.0,2.0,74,0.00,,---,0.00,37.00,VWS V14.00,2013-02-02 20:49:00,
2013-02-02 15:54:00,16.7,9.9,30.03,South,182,0.0,4.0,74,0.00,,---,0.00,37.00,VWS V14.00,2013-02-02 20:54:00,
2013-02-02 15:59:00,16.6,9.8,30.03,SSE,155,0.0,4.0,74,0.00,,---,0.00,33.00,VWS V14.00,2013-02-02 20:59:00,
2013-02-02 16:00:00,14.8,5.2,29.93,WNW,284,1.0,9.0,65,0.00,,---,0.00,0.00,VWS V14.00,2013-02-02 21:00:00,
2013-02-02 16:04:00,16.6,10.1,30.03,SSE,155,0.0,4.0,75,0.00,,---,0.00,37.00,VWS V14.00,2013-02-02 21:04:00,
2013-02-02 16:09:00,16.6,10.1,30.03,SSE,165,0.0,4.0,75,0.00,,---,0.00,25.00,VWS V14.00,2013-02-02 21:09:00,
2013-02-02 16:14:00,16.6,10.1,30.02,South,177,2.0,4.0,75,0.00,,---,0.00,28.00,VWS V14.00,2013-02-02 21:14:00,
2013-02-02 16:19:00,16.5,10.3,30.02,South,175,0.0,5.0,76,0.00,,---,0.00,30.00,VWS V14.00,2013-02-02 21:19:00,
2013-02-02 16:24:00,16.4,10.2,30.02,SSE,163,0.0,5.0,76,0.00,,---,0.00,18.00,VWS V14.00,2013-02-02 21:24:00,
2013-02-02 16:30:00,16.4,10.2,30.02,SSE,168,0.0,5.0,76,0.00,,---,0.00,18.00,VWS V14.00,2013-02-02 21:30:00,
2013-02-02 16:35:00,16.4,10.5,30.02,SSE,168,0.0,5.0,77,0.00,,---,0.00,18.00,VWS V14.00,2013-02-02 21:35:00,
2013-02-02 16:40:00,16.4,10.5,30.02,SSE,168,0.0,5.0,77,0.00,,---,0.00,19.00,VWS V14.00,2013-02-02 21:40:00,
2013-02-02 16:45:00,16.4,10.8,30.02,SSE,168,0.0,5.0,78,0.00,,---,0.00,7.00,VWS V14.00,2013-02-02 21:45:00,
2013-02-02 16:50:00,16.4,10.8,30.02,SSE,168,0.0,0.0,78,0.00,,---,0.00,0.00,VWS V14.00,2013-02-02 21:50:00,
2013-02-02 16:55:00,16.3,10.7,30.02,SSE,168,0.0,0.0,78,0.00,,---,0.00,0.00,VWS V14.00,2013-02-02 21:55:00,
2013-02-02 17:00:00,16.1,10.8,30.02,SSE,168,0.0,1.0,79,0.00,,---,0.00,0.00,VWS V14.00,2013-02-02 22:00:00,
2013-02-02 17:05:00,16.1,11.0,30.02,SSE,168,0.0,1.0,80,0.00,,---,0.00,0.00,VWS V14.00,2013-02-02 22:05:00,
2013-02-02 17:10:00,16.0,10.9,30.02,SSE,156,0.0,2.0,80,0.00,,---,0.00,0.00,VWS V14.00,2013-02-02 22:10:00,
2013-02-02 17:15:00,16.0,11.2,30.02,SSE,156,0.0,2.0,81,0.00,,---,0.00,0.00,VWS V14.00,2013-02-02 22:15:00,
2013-02-02 17:20:00,16.0,11.2,30.02,SSE,156,0.0,0.0,81,0.00,,---,0.00,0.00,VWS V14.00,2013-02-02 22:20:00,
2013-02-02 17:25:00,15.9,11.4,30.02,SSE,156,0.0,0.0,82,0.00,,---,0.00,0.00,VWS V14.00,2013-02-02 22:25:00,
2013-02-02 17:30:00,15.9,11.4,30.02,SSE,156,0.0,2.0,82,0.00,,---,0.00,0.00,VWS V14.00,2013-02-02 22:30:00,
2013-02-02 17:35:00,15.8,11.3,30.02,SSE,156,0.0,2.0,82,0.00,,---,0.00,0.00,VWS V14.00,2013-02-02 22:35:00,
2013-02-02 17:40:00,15.8,11.3,30.02,SSE,156,0.0,2.0,82,0.00,,---,0.00,0.00,VWS V14.00,2013-02-02 22:40:00,
2013-02-02 17:45:00,15.7,11.5,30.02,SSE,156,0.0,2.0,83,0.00,,---,0.00,0.00,VWS V14.00,2013-02-02 22:45:00,
2013-02-02 17:50:00,15.7,11.5,30.02,SSE,156,0.0,0.0,83,0.00,,---,0.00,0.00,VWS V14.00,2013-02-02 22:50:00,
2013-02-02 17:55:00,15.7,11.5,30.02,SSE,156,1.0,3.0,83,0.00,,---,0.00,0.00,VWS V14.00,2013-02-02 22:55:00,
2013-02-02 18:00:00,15.6,11.6,30.02,SSE,156,0.0,3.0,84,0.00,,---,0.00,0.00,VWS V14.00,2013-02-02 23:00:00,
2013-02-02 18:05:00,15.6,11.6,30.02,SSE,156,0.0,3.0,84,0.00,,---,0.00,0.00,VWS V14.00,2013-02-02 23:05:00,
2013-02-02 18:10:00,15.6,11.6,30.02,SSE,156,0.0,3.0,84,0.00,,---,0.00,0.00,VWS V14.00,2013-02-02 23:10:00,
2013-02-02 18:15:00,15.7,11.7,30.02,SSE,156,0.0,3.0,84,0.00,,---,0.00,0.00,VWS V14.00,2013-02-02 23:15:00,
2013-02-02 18:20:00,15.6,11.6,30.02,SSE,156,0.0,0.0,84,0.00,,---,0.00,0.00,VWS V14.00,2013-02-02 23:20:00,
2013-02-02 18:25:00,15.6,11.9,30.02,SSE,156,0.0,2.0,85,0.00,,---,0.00,0.00,VWS V14.00,2013-02-02 23:25:00,
2013-02-02 18:30:00,15.5,11.8,30.02,SSE,156,1.0,2.0,85,0.00,,---,0.00,0.00,VWS V14.00,2013-02-02 23:30:00,
2013-02-02 18:35:00,15.5,11.8,30.02,SSE,156,0.0,2.0,85,0.00,,---,0.00,0.00,VWS V14.00,2013-02-02 23:35:00,
2013-02-02 18:40:00,15.5,11.8,30.02,SSE,156,0.0,2.0,85,0.00,,---,0.00,0.00,VWS V14.00,2013-02-02 23:40:00,
2013-02-02 18:45:00,15.5,11.8,30.02,SSE,156,0.0,2.0,85,0.00,,---,0.00,0.00,VWS V14.00,2013-02-02 23:45:00,
2013-02-02 18:50:00,15.4,11.7,30.02,SSE,156,0.0,0.0,85,0.00,,---,0.00,0.00,VWS V14.00,2013-02-02 23:50:00,
2013-02-02 18:55:00,15.4,12.0,30.02,SSE,156,0.0,0.0,86,0.00,,---,0.00,0.00,VWS V14.00,2013-02-02 23:55:00,
2013-02-02 19:00:00,15.4,12.0,30.02,SSE,156,0.0,0.0,86,0.00,,---,0.00,0.00,VWS V14.00,2013-02-03 00:00:00,
2013-02-02 19:05:00,15.4,12.0,30.02,SSE,156,0.0,0.0,86,0.00,,---,0.00,0.00,VWS V14.00,2013-02-03 00:05:00,
2013-02-02 19:10:00,15.4,11.7,30.02,SSE,156,0.0,0.0,85,0.00,,---,0.00,0.00,VWS V14.00,2013-02-03 00:10:00,
2013-02-02 19:15:00,15.5,12.1,30.02,SSE,156,0.0,0.0,86,0.00,,---,0.00,0.00,VWS V14.00,2013-02-03 00:15:00,
2013-02-02 19:20:00,15.5,12.1,30.02,SSE,156,0.0,0.0,86,0.00,,---,0.00,0.00,VWS V14.00,2013-02-03 00:20:00,
2013-02-02 19:25:00,15.5,12.1,30.02,SSE,156,0.0,0.0,86,0.00,,---,0.00,0.00,VWS V14.00,2013-02-03 00:25:00,
2013-02-02 19:30:00,15.5,12.1,30.02,SSE,156,0.0,0.0,86,0.00,,---,0.00,0.00,VWS V14.00,2013-02-03 00:30:00,
2013-02-02 19:35:00,15.6,12.2,30.02,SSE,156,0.0,0.0,86,0.00,,---,0.00,0.00,VWS V14.00,2013-02-03 00:35:00,
2013-02-02 19:40:00,15.5,12.1,30.02,SSE,156,0.0,0.0,86,0.00,,---,0.00,0.00,VWS V14.00,2013-02-03 00:40:00,
2013-02-02 19:45:00,15.6,12.2,30.02,SSE,156,0.0,0.0,86,0.00,,---,0.00,0.00,VWS V14.00,2013-02-03 00:45:00,
2013-02-02 19:50:00,15.6,12.2,30.02,SSE,156,0.0,0.0,86,0.00,,---,0.00,0.00,VWS V14.00,2013-02-03 00:50:00,
2013-02-02 19:55:00,15.6,12.2,30.02,SSE,156,0.0,0.0,86,0.00,,---,0.00,0.00,VWS V14.00,2013-02-03 00:55:00,
2013-02-02 20:00:00,15.6,12.2,30.02,SSE,156,0.0,0.0,86,0.00,,---,0.00,0.00,VWS V14.00,2013-02-03 01:00:00,
2013-02-02 20:05:00,15.6,12.2,30.02,SSE,156,0.0,0.0,86,0.00,,---,0.00,0.00,VWS V14.00,2013-02-03 01:05:00,
2013-02-02 20:10:00,15.6,12.2,30.02,SSE,156,0.0,0.0,86,0.00,,---,0.00,0.00,VWS V14.00,2013-02-03 01:10:00,
2013-02-02 20:15:00,15.6,12.2,30.02,SSE,156,0.0,0.0,86,0.00,,---,0.00,0.00,VWS V14.00,2013-02-03 01:15:00,
2013-02-02 20:20:00,15.7,12.3,30.02,SSE,156,0.0,0.0,86,0.00,,---,0.00,0.00,VWS V14.00,2013-02-03 01:20:00,
2013-02-02 20:25:00,15.7,12.3,30.02,SSE,156,0.0,0.0,86,0.00,,---,0.00,0.00,VWS V14.00,2013-02-03 01:25:00,
2013-02-02 20:30:00,15.7,12.3,30.02,SSE,156,0.0,0.0,86,0.00,,---,0.00,0.00,VWS V14.00,2013-02-03 01:30:00,
2013-02-02 20:35:00,15.7,12.3,30.02,SSE,156,0.0,0.0,86,0.00,,---,0.00,0.00,VWS V14.00,2013-02-03 01:35:00,
2013-02-02 20:40:00,15.7,12.3,30.02,SSE,156,0.0,0.0,86,0.00,,---,0.00,0.00,VWS V14.00,2013-02-03 01:40:00,
2013-02-02 20:45:00,15.7,12.3,30.02,SSE,156,0.0,0.0,86,0.00,,---,0.00,0.00,VWS V14.00,2013-02-03 01:45:00,
2013-02-02 20:50:00,15.7,12.3,30.02,SSE,156,0.0,0.0,86,0.00,,---,0.00,0.00,VWS V14.00,2013-02-03 01:50:00,
2013-02-02 20:55:00,15.7,12.3,30.03,SSE,156,0.0,0.0,86,0.00,,---,0.00,0.00,VWS V14.00,2013-02-03 01:55:00,
2013-02-02 21:00:00,15.7,12.3,30.03,SSE,156,0.0,0.0,86,0.00,,---,0.00,0.00,VWS V14.00,2013-02-03 02:00:00,
2013-02-02 21:05:00,15.8,12.4,30.02,SSE,156,0.0,0.0,86,0.00,,---,0.00,0.00,VWS V14.00,2013-02-03 02:05:00,
2013-02-02 21:10:00,15.8,12.4,30.03,SSE,156,0.0,0.0,86,0.00,,---,0.00,0.00,VWS V14.00,2013-02-03 02:10:00,
2013-02-02 21:15:00,15.8,12.4,30.03,SSE,156,0.0,0.0,86,0.00,,---,0.00,0.00,VWS V14.00,2013-02-03 02:15:00,
2013-02-02 21:20:00,15.8,12.4,30.03,SSE,156,0.0,0.0,86,0.00,,---,0.00,0.00,VWS V14.00,2013-02-03 02:20:00,
2013-02-02 21:25:00,15.8,12.4,30.03,SSE,156,0.0,0.0,86,0.00,,---,0.00,0.00,VWS V14.00,2013-02-03 02:25:00,
2013-02-02 21:30:00,15.8,12.4,30.02,SSE,156,0.0,0.0,86,0.00,,---,0.00,0.00,VWS V14.00,2013-02-03 02:30:00,
2013-02-02 21:35:00,15.8,12.4,30.02,SSE,156,0.0,0.0,86,0.00,,---,0.00,0.00,VWS V14.00,2013-02-03 02:35:00,
2013-02-02 21:40:00,15.7,12.5,30.02,SSE,156,0.0,0.0,87,0.00,,---,0.00,0.00,VWS V14.00,2013-02-03 02:40:00,
2013-02-02 21:46:00,15.5,12.1,30.02,SSE,156,0.0,0.0,86,0.00,,---,0.00,0.00,VWS V14.00,2013-02-03 02:46:00,
2013-02-02 21:51:00,15.5,12.3,30.02,SSE,156,0.0,0.0,87,0.00,,---,0.00,0.00,VWS V14.00,2013-02-03 02:51:00,
2013-02-02 21:56:00,15.4,12.2,30.02,SSE,156,0.0,1.0,87,0.00,,---,0.00,0.00,VWS V14.00,2013-02-03 02:56:00,
2013-02-02 22:00:00,12.2,8.3,30.07,NW,315,3.0,4.0,84,0.00,,---,0.00,0.00,VWS V14.00,2013-02-03 03:00:00,
2013-02-02 22:01:00,15.3,11.9,30.02,SSE,156,0.0,1.0,86,0.00,,---,0.00,0.00,VWS V14.00,2013-02-03 03:01:00,
2013-02-02 22:06:00,15.3,11.9,30.02,SSE,156,0.0,1.0,86,0.00,,---,0.00,0.00,VWS V14.00,2013-02-03 03:06:00,
2013-02-02 22:11:00,15.2,11.8,30.02,SSE,156,0.0,1.0,86,0.00,,---,0.00,0.00,VWS V14.00,2013-02-03 03:11:00,
2013-02-02 22:16:00,15.1,11.7,30.02,SSE,156,0.0,0.0,86,0.00,,---,0.00,0.00,VWS V14.00,2013-02-03 03:16:00,
2013-02-02 22:21:00,14.7,11.3,30.02,SSE,156,0.0,0.0,86,0.00,,---,0.00,0.00,VWS V14.00,2013-02-03 03:21:00,
2013-02-02 22:26:00,14.4,11.0,30.02,SSE,156,0.0,0.0,86,0.00,,---,0.00,0.00,VWS V14.00,2013-02-03 03:26:00,
2013-02-02 22:30:00,10.9,7.0,30.08,WNW,287,6.0,9.0,84,0.00,,---,0.00,0.00,VWS V14.00,2013-02-03 03:30:00,
2013-02-02 22:31:00,14.1,10.7,30.02,SSE,156,0.0,0.0,86,0.00,,---,0.00,0.00,VWS V14.00,2013-02-03 03:31:00,
2013-02-02 22:36:00,13.8,10.4,30.02,SSE,156,0.0,0.0,86,0.00,,---,0.00,0.00,VWS V14.00,2013-02-03 03:36:00,
2013-02-02 22:41:00,13.6,10.2,30.02,SSE,156,0.0,0.0,86,0.00,,---,0.00,0.00,VWS V14.00,2013-02-03 03:41:00,
2013-02-02 22:46:00,13.3,9.9,30.02,SSE,156,0.0,0.0,86,0.00,,---,0.00,0.00,VWS V14.00,2013-02-03 03:46:00,
2013-02-02 22:51:00,12.8,9.4,30.02,SSE,156,0.0,0.0,86,0.00,,---,0.00,0.00,VWS V14.00,2013-02-03 03:51:00,
2013-02-02 22:56:00,12.5,9.1,30.02,SSE,156,0.0,0.0,86,0.00,,---,0.00,0.00,VWS V14.00,2013-02-03 03:56:00,
2013-02-02 23:00:00,9.5,5.4,30.09,NW,317,3.0,7.0,83,0.00,,---,0.00,0.00,VWS V14.00,2013-02-03 04:00:00,
2013-02-02 23:01:00,12.4,9.0,30.02,SSE,156,0.0,0.0,86,0.00,,---,0.00,0.00,VWS V14.00,2013-02-03 04:01:00,
2013-02-02 23:06:00,12.3,8.9,30.02,SSE,156,0.0,0.0,86,0.00,,---,0.00,0.00,VWS V14.00,2013-02-03 04:06:00,
2013-02-02 23:11:00,12.3,8.9,30.02,SSE,156,0.0,0.0,86,0.00,,---,0.00,0.00,VWS V14.00,2013-02-03 04:11:00,
2013-02-02 23:16:00,12.3,8.9,30.02,SSE,156,0.0,0.0,86,0.00,,---,0.00,0.00,VWS V14.00,2013-02-03 04:16:00,
2013-02-02 23:21:00,12.3,8.9,30.02,ESE,115,1.0,1.0,86,0.00,,---,0.00,0.00,VWS V14.00,2013-02-03 04:21:00,
2013-02-02 23:26:00,12.5,9.1,30.03,ESE,115,0.0,1.0,86,0.00,,---,0.00,0.00,VWS V14.00,2013-02-03 04:26:00,
2013-02-02 23:30:00,8.9,4.8,30.11,NW,316,1.0,6.0,83,0.00,,---,0.00,0.00,VWS V14.00,2013-02-03 04:30:00,
2013-02-02 23:31:00,12.6,9.5,30.03,ESE,115,0.0,1.0,87,0.00,,---,0.00,0.00,VWS V14.00,2013-02-03 04:31:00,
2013-02-02 23:36:00,12.6,9.5,30.03,ESE,115,0.0,1.0,87,0.00,,---,0.00,0.00,VWS V14.00,2013-02-03 04:36:00,
2013-02-02 23:41:00,12.6,9.5,30.02,ESE,115,0.0,1.0,87,0.00,,---,0.00,0.00,VWS V14.00,2013-02-03 04:41:00,
2013-02-02 23:46:00,12.7,9.6,30.03,SSE,150,0.0,0.0,87,0.00,,---,0.00,0.00,VWS V14.00,2013-02-03 04:46:00,
2013-02-02 23:51:00,12.6,9.5,30.02,SSE,150,0.0,0.0,87,0.00,,---,0.00,0.00,VWS V14.00,2013-02-03 04:51:00,
2013-02-02 23:56:00,12.5,9.4,30.02,SSE,150,0.0,0.0,87,0.00,,---,0.00,0.00,VWS V14.00,2013-02-03 04:56:00,